createdAt,value
2023-02-28T00:00:39.542Z,39.28
2023-02-28T00:02:47.530Z,37.80
2023-02-28T00:04:54.969Z,45.60
2023-02-28T00:07:01.998Z,39.58
2023-02-28T00:09:10.574Z,37.95
2023-02-28T00:11:19.025Z,41.72
2023-02-28T00:13:25.847Z,36.13
2023-02-28T00:15:32.827Z,38.75
2023-02-28T00:17:39.697Z,36.38
2023-02-28T00:19:46.932Z,34.30
2023-02-28T00:21:53.652Z,39.63
2023-02-28T00:24:00.786Z,38.10
2023-02-28T00:26:09.969Z,37.13
2023-02-28T00:28:17.554Z,35.83
2023-02-28T00:30:26.042Z,33.90
2023-02-28T00:32:33.353Z,37.28
2023-02-28T00:34:41.403Z,35.90
2023-02-28T00:36:52.635Z,42.15
2023-02-28T00:38:59.346Z,41.72
2023-02-28T00:41:10.008Z,39.08
2023-02-28T00:43:16.793Z,37.17
2023-02-28T00:45:25.232Z,38.50
2023-02-28T00:47:32.065Z,40.35
2023-02-28T00:49:39.869Z,43.75
2023-02-28T00:51:46.840Z,44.50
2023-02-28T00:53:54.023Z,52.28
2023-02-28T00:56:01.003Z,55.30
2023-02-28T00:58:09.718Z,57.90
2023-02-28T01:00:17.417Z,55.25
2023-02-28T01:02:24.591Z,58.90
2023-02-28T01:04:32.854Z,47.22
2023-02-28T01:06:42.330Z,44.78
2023-02-28T01:08:50.590Z,47.42
2023-02-28T01:10:58.033Z,42.58
2023-02-28T01:13:04.849Z,40.00
2023-02-28T01:15:15.466Z,42.78
2023-02-28T01:17:22.437Z,40.20
2023-02-28T01:19:29.779Z,34.60
2023-02-28T01:21:36.903Z,35.95
2023-02-28T01:23:44.648Z,35.30
2023-02-28T01:25:51.840Z,33.10
2023-02-28T01:27:58.755Z,32.50
2023-02-28T01:30:07.628Z,31.52
2023-02-28T01:32:17.378Z,30.40
2023-02-28T01:34:24.601Z,28.40
2023-02-28T01:36:31.681Z,28.23
2023-02-28T01:38:39.373Z,23.65
2023-02-28T01:40:46.295Z,24.63
2023-02-28T01:42:53.273Z,25.52
2023-02-28T01:45:08.188Z,22.75
2023-02-28T01:47:17.168Z,23.27
2023-02-28T01:49:24.293Z,23.35
2023-02-28T01:51:38.790Z,20.75
2023-02-28T01:53:51.759Z,18.60
2023-02-28T01:55:59.913Z,16.77
2023-02-28T01:58:08.887Z,15.27
2023-02-28T02:00:18.628Z,19.38
2023-02-28T02:02:32.195Z,23.63
2023-02-28T02:04:44.203Z,21.67
2023-02-28T02:06:52.868Z,17.70
2023-02-28T02:09:00.518Z,17.27
2023-02-28T02:14:03.567Z,18.17
2023-02-28T02:16:21.621Z,16.20
2023-02-28T02:18:36.669Z,17.27
2023-02-28T02:21:20.970Z,21.33
2023-02-28T02:23:56.568Z,18.73
2023-02-28T02:26:24.897Z,18.83
2023-02-28T02:28:53.735Z,19.20
2023-02-28T02:31:22.501Z,20.35
2023-02-28T02:34:19.162Z,17.70
2023-02-28T02:36:31.424Z,19.23
2023-02-28T02:38:43.769Z,24.80
2023-02-28T02:40:58.728Z,16.88
2023-02-28T02:43:09.957Z,15.13
2023-02-28T02:45:22.468Z,13.52
2023-02-28T02:47:33.382Z,18.55
2023-02-28T02:49:43.953Z,19.05
2023-02-28T02:51:53.787Z,16.00
2023-02-28T02:54:06.050Z,15.80
2023-02-28T02:56:14.864Z,16.65
2023-02-28T02:58:26.187Z,20.25
2023-02-28T03:00:38.490Z,23.50
2023-02-28T03:02:46.693Z,16.00
2023-02-28T03:04:57.613Z,17.50
2023-02-28T03:07:06.637Z,17.63
2023-02-28T03:09:13.665Z,18.52
2023-02-28T03:11:22.548Z,16.60
2023-02-28T03:13:47.691Z,14.90
2023-02-28T03:16:11.992Z,13.57
2023-02-28T03:18:26.271Z,16.83
2023-02-28T03:20:42.772Z,15.05
2023-02-28T03:23:00.967Z,15.98
2023-02-28T03:25:12.907Z,14.18
2023-02-28T03:27:27.461Z,16.27
2023-02-28T03:29:39.251Z,14.82
2023-02-28T03:31:53.227Z,15.20
2023-02-28T03:34:05.648Z,11.82
2023-02-28T03:36:17.852Z,11.25
2023-02-28T03:38:35.734Z,10.60
2023-02-28T03:40:46.752Z,14.45
2023-02-28T03:42:56.443Z,10.15
2023-02-28T03:45:04.934Z,11.50
2023-02-28T03:47:16.848Z,15.05
2023-02-28T03:49:27.977Z,12.00
2023-02-28T03:51:37.714Z,11.43
2023-02-28T03:53:49.246Z,12.30
2023-02-28T03:56:00.526Z,14.95
2023-02-28T03:58:15.233Z,10.57
2023-02-28T04:00:27.517Z,12.60
2023-02-28T04:02:34.462Z,11.00
2023-02-28T04:04:50.251Z,10.98
2023-02-28T04:06:57.255Z,9.38
2023-02-28T04:09:06.606Z,11.60
2023-02-28T04:11:28.188Z,10.13
2023-02-28T04:15:41.279Z,12.38
2023-02-28T04:17:48.178Z,10.05
2023-02-28T04:19:56.027Z,10.20
2023-02-28T04:22:03.320Z,13.40
2023-02-28T04:24:16.077Z,10.50
2023-02-28T04:26:23.162Z,8.65
2023-02-28T04:28:30.129Z,8.88
2023-02-28T04:30:37.366Z,10.85
2023-02-28T04:32:44.473Z,9.55
2023-02-28T04:34:51.675Z,11.48
2023-02-28T04:37:12.394Z,12.48
2023-02-28T04:41:31.909Z,10.52
2023-02-28T04:43:39.652Z,13.03
2023-02-28T04:45:46.543Z,15.27
2023-02-28T04:47:53.706Z,11.07
2023-02-28T04:50:00.429Z,8.95
2023-02-28T04:52:09.383Z,10.95
2023-02-28T04:54:18.118Z,12.60
2023-02-28T04:56:27.499Z,13.70
2023-02-28T04:58:34.351Z,10.50
2023-02-28T05:00:41.332Z,15.45
2023-02-28T05:02:48.074Z,10.80
2023-02-28T05:04:55.530Z,10.25
2023-02-28T05:07:02.599Z,19.48
2023-02-28T05:09:09.871Z,32.15
2023-02-28T05:11:21.712Z,22.05
2023-02-28T05:13:30.532Z,9.85
2023-02-28T05:15:37.712Z,17.70
2023-02-28T05:17:44.642Z,11.82
2023-02-28T05:19:51.768Z,14.25
2023-02-28T05:21:59.491Z,11.82
2023-02-28T05:24:07.978Z,21.88
2023-02-28T05:26:14.902Z,13.60
2023-02-28T05:28:22.074Z,16.42
2023-02-28T05:30:30.595Z,23.75
2023-02-28T05:32:37.965Z,20.95
2023-02-28T05:34:44.804Z,17.42
2023-02-28T05:36:51.845Z,11.45
2023-02-28T05:38:58.608Z,13.38
2023-02-28T05:41:08.912Z,11.10
2023-02-28T05:43:16.351Z,9.85
2023-02-28T05:45:23.633Z,12.38
2023-02-28T05:47:32.058Z,9.48
2023-02-28T05:49:41.533Z,10.63
2023-02-28T05:51:48.194Z,10.50
2023-02-28T05:53:55.285Z,11.23
2023-02-28T05:56:02.102Z,9.98
2023-02-28T05:58:09.163Z,10.13
2023-02-28T06:00:19.804Z,10.80
2023-02-28T06:02:31.147Z,10.38
2023-02-28T06:04:39.482Z,12.70
2023-02-28T06:06:46.749Z,10.82
2023-02-28T06:08:53.746Z,8.40
2023-02-28T06:11:01.084Z,10.20
2023-02-28T06:13:08.518Z,11.50
2023-02-28T06:15:18.724Z,9.60
2023-02-28T06:17:25.697Z,10.43
2023-02-28T06:19:32.814Z,13.77
2023-02-28T06:21:41.493Z,10.02
2023-02-28T06:23:48.389Z,10.43
2023-02-28T06:25:55.243Z,13.10
2023-02-28T06:28:02.885Z,9.77
2023-02-28T06:30:10.786Z,12.98
2023-02-28T06:32:17.636Z,18.23
2023-02-28T06:34:24.382Z,12.32
2023-02-28T06:36:31.307Z,11.55
2023-02-28T06:38:40.284Z,10.75
2023-02-28T06:40:47.359Z,11.05
2023-02-28T06:42:54.233Z,13.02
2023-02-28T06:45:01.783Z,11.52
2023-02-28T06:47:09.416Z,9.43
2023-02-28T06:49:16.804Z,9.52
2023-02-28T06:51:26.186Z,10.65
2023-02-28T06:53:33.321Z,10.95
2023-02-28T06:55:42.649Z,9.50
2023-02-28T06:57:49.830Z,10.63
2023-02-28T06:59:56.555Z,11.88
2023-02-28T07:02:04.153Z,11.95
2023-02-28T07:04:11.272Z,11.65
2023-02-28T07:06:20.038Z,10.30
2023-02-28T07:08:26.912Z,9.68
2023-02-28T07:10:34.815Z,11.50
2023-02-28T07:12:43.817Z,8.13
2023-02-28T07:14:50.815Z,9.30
2023-02-28T07:16:57.676Z,9.23
2023-02-28T07:19:04.712Z,13.55
2023-02-28T07:21:12.866Z,10.00
2023-02-28T07:23:19.994Z,8.93
2023-02-28T07:25:27.024Z,11.32
2023-02-28T07:27:34.161Z,13.25
2023-02-28T07:29:42.616Z,12.43
2023-02-28T07:31:49.797Z,9.98
2023-02-28T07:33:58.368Z,9.25
2023-02-28T07:36:10.408Z,11.00
2023-02-28T07:40:23.445Z,15.38
2023-02-28T07:42:30.372Z,12.95
2023-02-28T07:44:37.653Z,9.52
2023-02-28T07:46:46.133Z,11.70
2023-02-28T07:48:53.247Z,9.32
2023-02-28T07:51:00.687Z,11.95
2023-02-28T07:53:07.717Z,10.00
2023-02-28T07:55:15.669Z,11.20
2023-02-28T07:57:23.479Z,10.25
2023-02-28T07:59:32.255Z,11.52
2023-02-28T08:01:40.214Z,9.93
2023-02-28T08:03:48.640Z,11.95
2023-02-28T08:05:56.300Z,9.52
2023-02-28T08:08:03.159Z,10.15
2023-02-28T08:10:11.929Z,10.57
2023-02-28T08:12:18.699Z,12.48
2023-02-28T08:14:25.713Z,14.60
2023-02-28T08:16:32.913Z,10.52
2023-02-28T08:18:39.802Z,8.85
2023-02-28T08:20:48.193Z,10.55
2023-02-28T08:22:55.323Z,15.07
2023-02-28T08:25:02.045Z,10.70
2023-02-28T08:27:08.917Z,11.20
2023-02-28T08:29:15.692Z,11.45
2023-02-28T08:31:24.713Z,12.52
2023-02-28T08:33:33.441Z,9.93
2023-02-28T08:35:41.540Z,10.50
2023-02-28T08:37:52.455Z,9.07
2023-02-28T08:39:59.690Z,12.57
2023-02-28T08:42:07.733Z,11.65
2023-02-28T08:44:15.330Z,14.35
2023-02-28T08:46:22.204Z,11.77
2023-02-28T08:48:30.058Z,12.35
2023-02-28T08:50:36.923Z,11.15
2023-02-28T08:52:45.838Z,9.45
2023-02-28T08:54:54.239Z,12.00
2023-02-28T08:57:01.131Z,13.32
2023-02-28T08:59:07.901Z,11.48
2023-02-28T09:01:16.373Z,12.02
2023-02-28T09:03:24.326Z,10.48
2023-02-28T09:05:32.314Z,10.90
2023-02-28T09:07:39.138Z,10.48
2023-02-28T09:09:55.769Z,12.50
2023-02-28T09:12:04.408Z,9.15
2023-02-28T09:14:11.431Z,12.07
2023-02-28T09:16:19.828Z,12.85
2023-02-28T09:18:26.922Z,11.02
2023-02-28T09:20:33.796Z,11.95
2023-02-28T09:22:41.080Z,13.32
2023-02-28T09:24:48.336Z,12.55
2023-02-28T09:27:04.561Z,11.52
2023-02-28T09:29:14.125Z,10.02
2023-02-28T09:31:24.349Z,10.18
2023-02-28T09:33:31.169Z,13.23
2023-02-28T09:35:39.053Z,11.88
2023-02-28T09:37:45.742Z,10.93
2023-02-28T09:39:52.770Z,11.30
2023-02-28T09:42:00.359Z,12.50
2023-02-28T09:44:11.843Z,11.45
2023-02-28T09:46:34.261Z,12.55
2023-02-28T09:48:48.476Z,12.75
2023-02-28T09:50:57.193Z,14.40
2023-02-28T09:53:06.731Z,11.52
2023-02-28T09:55:26.421Z,14.02
2023-02-28T09:57:41.183Z,11.80
2023-02-28T10:00:02.580Z,12.98
2023-02-28T10:02:53.541Z,12.50
2023-02-28T10:05:03.359Z,13.15
2023-02-28T10:07:38.315Z,13.95
2023-02-28T10:09:45.394Z,12.77
2023-02-28T10:11:56.102Z,11.75
2023-02-28T10:14:09.040Z,10.95
2023-02-28T10:18:31.665Z,15.43
2023-02-28T10:20:42.049Z,11.00
2023-02-28T10:22:57.513Z,11.80
2023-02-28T10:25:09.404Z,14.70
2023-02-28T10:27:19.819Z,12.48
2023-02-28T10:29:26.686Z,11.23
2023-02-28T10:31:33.923Z,11.55
2023-02-28T10:33:42.853Z,12.95
2023-02-28T10:35:50.672Z,11.30
2023-02-28T10:38:01.682Z,13.05
2023-02-28T10:40:10.633Z,13.60
2023-02-28T10:42:29.241Z,11.77
2023-02-28T10:44:36.774Z,11.90
2023-02-28T10:46:44.826Z,10.32
2023-02-28T10:49:05.072Z,12.05
2023-02-28T10:51:14.345Z,11.00
2023-02-28T10:54:01.552Z,16.05
2023-02-28T10:56:18.628Z,12.77
2023-02-28T10:58:29.853Z,14.32
2023-02-28T11:00:39.133Z,9.73
2023-02-28T11:02:46.728Z,12.40
2023-02-28T11:04:55.550Z,13.40
2023-02-28T11:07:03.987Z,29.83
2023-02-28T11:09:25.042Z,15.50
2023-02-28T11:11:34.548Z,13.48
2023-02-28T11:13:41.779Z,16.80
2023-02-28T11:15:56.181Z,15.27
2023-02-28T11:18:05.718Z,16.90
2023-02-28T11:20:25.291Z,11.13
2023-02-28T11:22:36.053Z,13.50
2023-02-28T11:24:48.559Z,13.45
2023-02-28T11:26:55.638Z,16.25
2023-02-28T11:29:14.648Z,14.45
2023-02-28T11:31:24.350Z,14.93
2023-02-28T11:33:33.470Z,17.77
2023-02-28T11:35:44.971Z,14.50
2023-02-28T11:37:51.667Z,18.13
2023-02-28T11:39:59.718Z,13.32
2023-02-28T11:42:48.269Z,18.15
2023-02-28T11:45:19.977Z,18.25
2023-02-28T11:47:37.706Z,22.35
2023-02-28T11:49:52.928Z,23.13
2023-02-28T11:52:05.124Z,21.08
2023-02-28T11:54:35.858Z,16.88
2023-02-28T11:56:47.317Z,18.13
2023-02-28T11:59:02.824Z,16.45
2023-02-28T12:01:23.727Z,25.25
2023-02-28T12:03:41.303Z,30.17
2023-02-28T12:05:50.483Z,19.83
2023-02-28T12:08:08.266Z,23.77
2023-02-28T12:10:25.847Z,25.23
2023-02-28T12:12:46.028Z,26.92
2023-02-28T12:15:09.851Z,22.05
2023-02-28T12:17:25.951Z,20.85
2023-02-28T12:19:44.713Z,22.90
2023-02-28T12:22:26.539Z,21.00
2023-02-28T12:24:53.637Z,20.27
2023-02-28T12:27:04.864Z,25.92
2023-02-28T12:29:21.468Z,21.67
2023-02-28T12:31:32.309Z,29.30
2023-02-28T12:33:45.555Z,20.92
2023-02-28T12:35:57.538Z,17.45
2023-02-28T12:38:09.849Z,25.35
2023-02-28T12:40:22.969Z,22.60
2023-02-28T12:42:34.296Z,26.70
2023-02-28T12:44:48.087Z,26.30
2023-02-28T12:46:58.490Z,28.70
2023-02-28T12:49:12.225Z,23.90
2023-02-28T12:51:21.534Z,32.47
2023-02-28T12:53:32.838Z,30.83
2023-02-28T12:55:47.185Z,29.17
2023-02-28T12:57:59.744Z,27.65
2023-02-28T13:00:09.337Z,29.52
2023-02-28T13:02:45.517Z,31.27
2023-02-28T13:05:11.157Z,29.13
2023-02-28T13:07:58.228Z,32.33
2023-02-28T13:10:08.431Z,32.63
2023-02-28T13:12:22.618Z,34.35
2023-02-28T13:14:32.528Z,33.20
2023-02-28T13:17:14.367Z,33.15
2023-02-28T13:19:25.191Z,30.33
2023-02-28T13:21:33.695Z,29.98
2023-02-28T13:24:03.814Z,23.83
2023-02-28T13:26:10.784Z,31.17
2023-02-28T13:29:11.986Z,31.30
2023-02-28T13:31:20.617Z,27.48
2023-02-28T13:33:41.501Z,23.25
2023-02-28T13:35:49.922Z,26.38
2023-02-28T13:38:19.219Z,29.70
2023-02-28T13:40:39.053Z,35.30
2023-02-28T13:42:54.417Z,30.02
2023-02-28T13:45:26.688Z,39.92
2023-02-28T13:49:40.641Z,26.35
2023-02-28T13:51:50.836Z,29.85
2023-02-28T13:54:05.814Z,31.10
2023-02-28T13:56:25.645Z,30.40
2023-02-28T13:58:52.427Z,32.55
2023-02-28T14:01:28.099Z,30.13
2023-02-28T14:03:48.919Z,29.38
2023-02-28T14:06:22.528Z,37.42
2023-02-28T14:08:29.710Z,36.55
2023-02-28T14:10:39.146Z,43.20
2023-02-28T14:13:46.288Z,41.47
2023-02-28T14:15:59.802Z,39.42
2023-02-28T14:18:18.681Z,31.05
2023-02-28T14:20:27.949Z,43.83
2023-02-28T14:22:55.662Z,35.40
2023-02-28T14:25:19.997Z,39.65
2023-02-28T14:27:44.129Z,43.08
2023-02-28T14:30:14.807Z,44.30
2023-02-28T14:32:32.275Z,42.08
2023-02-28T14:34:50.673Z,44.42
2023-02-28T14:36:58.368Z,43.72
2023-02-28T14:39:10.161Z,53.30
2023-02-28T14:41:28.094Z,61.20
2023-02-28T14:43:35.326Z,47.20
2023-02-28T14:45:42.658Z,53.63
2023-02-28T14:47:50.454Z,60.95
2023-02-28T14:49:59.171Z,51.78
2023-02-28T14:52:15.212Z,55.45
2023-02-28T14:54:27.153Z,45.30
2023-02-28T14:56:39.508Z,46.10
2023-02-28T14:59:00.003Z,50.75
2023-02-28T15:01:09.283Z,80.07
2023-02-28T15:03:23.990Z,72.82
2023-02-28T15:05:35.786Z,49.47
2023-02-28T15:07:42.757Z,52.13
2023-02-28T15:09:49.729Z,61.10
2023-02-28T15:11:56.501Z,72.18
2023-02-28T15:14:04.399Z,68.18
2023-02-28T15:16:14.956Z,77.85
2023-02-28T15:18:30.899Z,101.80
2023-02-28T15:20:42.793Z,98.03
2023-02-28T15:22:52.683Z,99.68
2023-02-28T15:24:59.868Z,97.85
2023-02-28T15:27:10.733Z,96.65
2023-02-28T15:29:20.943Z,98.63
2023-02-28T15:31:43.811Z,96.85
2023-02-28T15:34:02.332Z,92.10
2023-02-28T15:36:19.723Z,92.10
2023-02-28T15:38:28.740Z,89.90
2023-02-28T15:40:36.941Z,95.32
2023-02-28T15:42:45.807Z,86.40
2023-02-28T15:44:53.449Z,87.60
2023-02-28T15:47:05.122Z,78.90
2023-02-28T15:49:23.783Z,88.05
2023-02-28T15:51:38.198Z,88.80
2023-02-28T15:53:51.717Z,82.93
2023-02-28T15:56:05.202Z,71.85
2023-02-28T15:58:16.780Z,73.40
2023-02-28T16:00:26.430Z,67.10
2023-02-28T16:02:37.321Z,72.78
2023-02-28T16:04:59.220Z,68.25
2023-02-28T16:09:18.042Z,68.30
2023-02-28T16:11:26.050Z,64.47
2023-02-28T16:13:32.702Z,71.10
2023-02-28T16:15:45.264Z,72.65
2023-02-28T16:17:52.390Z,69.43
2023-02-28T16:20:00.048Z,82.70
2023-02-28T16:22:08.751Z,84.63
2023-02-28T16:24:15.726Z,79.25
2023-02-28T16:26:27.007Z,77.30
2023-02-28T16:28:37.166Z,69.28
2023-02-28T16:30:43.940Z,65.55
2023-02-28T16:32:50.857Z,59.38
2023-02-28T16:34:57.729Z,56.60
2023-02-28T16:37:05.069Z,49.55
2023-02-28T16:39:13.376Z,54.95
2023-02-28T16:41:23.168Z,49.00
2023-02-28T16:43:31.628Z,49.15
2023-02-28T16:45:38.635Z,49.08
2023-02-28T16:47:45.378Z,44.88
2023-02-28T16:49:53.126Z,43.72
2023-02-28T16:52:00.060Z,51.45
2023-02-28T16:54:07.284Z,58.15
2023-02-28T16:56:21.118Z,89.63
2023-02-28T16:58:29.479Z,65.35
2023-02-28T17:00:37.325Z,54.92
2023-02-28T17:02:44.791Z,46.85
2023-02-28T17:04:51.790Z,46.17
2023-02-28T17:06:59.074Z,59.83
2023-02-28T17:09:05.948Z,100.30
2023-02-28T17:11:13.644Z,63.80
2023-02-28T17:13:22.003Z,52.40
2023-02-28T17:15:29.261Z,54.20
2023-02-28T17:17:36.370Z,44.45
2023-02-28T17:19:45.086Z,42.78
2023-02-28T17:21:52.212Z,48.80
2023-02-28T17:23:59.707Z,46.50
2023-02-28T17:26:08.522Z,53.47
2023-02-28T17:28:15.755Z,54.22
2023-02-28T17:30:25.912Z,54.30
2023-02-28T17:32:33.181Z,54.80
2023-02-28T17:34:39.913Z,52.83
2023-02-28T17:36:46.893Z,52.08
2023-02-28T17:38:54.010Z,57.20
2023-02-28T17:41:01.311Z,55.15
2023-02-28T17:43:08.327Z,47.25
2023-02-28T17:45:15.620Z,55.03
2023-02-28T17:47:24.700Z,61.45
2023-02-28T17:49:31.730Z,53.55
2023-02-28T17:51:38.854Z,53.80
2023-02-28T17:53:45.832Z,52.22
2023-02-28T17:55:52.756Z,51.63
2023-02-28T17:57:59.260Z,52.63
2023-02-28T18:00:08.706Z,58.97
2023-02-28T18:04:28.910Z,59.72
2023-02-28T18:06:51.615Z,59.20
2023-02-28T18:08:59.099Z,50.72
2023-02-28T18:11:05.793Z,62.03
2023-02-28T18:13:14.569Z,56.88
2023-02-28T18:15:22.637Z,53.60
2023-02-28T18:17:29.664Z,54.67
2023-02-28T18:19:39.863Z,55.83
2023-02-28T18:21:47.408Z,56.97
2023-02-28T18:23:54.214Z,53.47
2023-02-28T18:26:01.400Z,57.03
2023-02-28T18:28:07.963Z,59.22
2023-02-28T18:30:16.038Z,57.97
2023-02-28T18:32:22.752Z,53.08
2023-02-28T18:34:31.593Z,54.50
2023-02-28T18:36:39.865Z,57.45
2023-02-28T18:38:46.907Z,51.72
2023-02-28T18:40:57.089Z,56.53
2023-02-28T18:43:04.217Z,60.00
2023-02-28T18:45:12.081Z,52.95
2023-02-28T18:47:19.466Z,57.15
2023-02-28T18:49:26.343Z,55.13
2023-02-28T18:51:33.831Z,56.35
2023-02-28T18:53:44.081Z,58.60
2023-02-28T18:55:51.521Z,56.20
2023-02-28T18:57:58.496Z,58.38
2023-02-28T19:00:05.477Z,51.95
2023-02-28T19:02:13.472Z,55.88
2023-02-28T19:04:20.864Z,59.22
2023-02-28T19:06:28.040Z,50.88
2023-02-28T19:08:35.427Z,54.08
2023-02-28T19:10:44.767Z,53.67
2023-02-28T19:12:51.899Z,59.42
2023-02-28T19:14:58.765Z,58.03
2023-02-28T19:17:06.212Z,52.08
2023-02-28T19:19:12.962Z,54.25
2023-02-28T19:21:21.743Z,54.35
2023-02-28T19:23:28.416Z,58.10
2023-02-28T19:25:35.503Z,55.38
2023-02-28T19:27:43.900Z,56.35
2023-02-28T19:29:52.670Z,54.95
2023-02-28T19:31:59.905Z,52.28
2023-02-28T19:34:06.931Z,51.42
2023-02-28T19:36:15.032Z,50.28
2023-02-28T19:38:22.168Z,50.42
2023-02-28T19:40:28.937Z,61.78
2023-02-28T19:42:36.183Z,57.25
2023-02-28T19:44:44.736Z,47.78
2023-02-28T19:46:51.967Z,49.70
2023-02-28T19:48:59.201Z,51.33
2023-02-28T19:51:08.042Z,49.88
2023-02-28T19:53:15.000Z,50.10
2023-02-28T19:55:22.229Z,55.40
2023-02-28T19:57:29.212Z,54.85
2023-02-28T19:59:39.705Z,52.35
2023-02-28T20:01:48.553Z,54.30
2023-02-28T20:03:55.824Z,49.45
2023-02-28T20:06:08.228Z,52.08
2023-02-28T20:08:15.713Z,53.55
2023-02-28T20:10:22.597Z,52.88
2023-02-28T20:12:32.280Z,49.70
2023-02-28T20:14:39.308Z,52.30
2023-02-28T20:16:48.172Z,49.10
2023-02-28T20:18:55.261Z,55.20
2023-02-28T20:21:02.901Z,52.42
2023-02-28T20:23:09.672Z,53.17
2023-02-28T20:25:16.702Z,59.10
2023-02-28T20:27:23.839Z,49.90
2023-02-28T20:29:31.218Z,49.97
2023-02-28T20:31:39.374Z,49.05
2023-02-28T20:33:48.605Z,52.45
2023-02-28T20:36:02.665Z,57.33
2023-02-28T20:38:09.622Z,49.45
2023-02-28T20:40:17.216Z,49.60
2023-02-28T20:42:24.191Z,48.70
2023-02-28T20:44:30.963Z,48.53
2023-02-28T20:46:38.213Z,51.13
2023-02-28T20:48:46.860Z,47.83
2023-02-28T20:50:54.358Z,47.70
2023-02-28T20:53:01.179Z,49.03
2023-02-28T20:55:09.266Z,50.60
2023-02-28T20:57:16.151Z,48.70
2023-02-28T20:59:23.697Z,53.17
2023-02-28T21:01:32.504Z,55.05
2023-02-28T21:03:39.491Z,51.80
2023-02-28T21:05:48.005Z,49.08
2023-02-28T21:07:55.393Z,48.80
2023-02-28T21:10:02.284Z,54.60
2023-02-28T21:12:09.241Z,51.17
2023-02-28T21:14:18.733Z,47.17
2023-02-28T21:16:28.346Z,52.55
2023-02-28T21:18:36.180Z,46.53
2023-02-28T21:20:43.243Z,55.17
2023-02-28T21:22:51.808Z,54.55
2023-02-28T21:24:59.098Z,50.47
2023-02-28T21:27:06.017Z,50.42
2023-02-28T21:29:13.555Z,48.22
2023-02-28T21:31:21.347Z,47.65
2023-02-28T21:33:28.689Z,54.20
2023-02-28T21:35:35.655Z,54.70
2023-02-28T21:37:42.848Z,50.13
2023-02-28T21:39:51.512Z,47.17
2023-02-28T21:42:04.631Z,50.25
2023-02-28T21:44:19.415Z,51.67
2023-02-28T21:46:28.023Z,56.63
2023-02-28T21:48:35.444Z,56.33
2023-02-28T21:50:42.627Z,47.33
2023-02-28T21:52:49.498Z,51.35
2023-02-28T21:54:58.371Z,52.85
2023-02-28T21:57:05.076Z,53.65
2023-02-28T21:59:13.450Z,52.30
2023-02-28T22:01:22.609Z,54.92
2023-02-28T22:03:30.271Z,60.35
2023-02-28T22:05:37.094Z,51.10
2023-02-28T22:07:44.436Z,53.63
2023-02-28T22:09:51.406Z,58.60
2023-02-28T22:12:00.803Z,56.63
2023-02-28T22:14:07.616Z,59.00
2023-02-28T22:16:15.741Z,62.50
2023-02-28T22:18:22.690Z,57.42
2023-02-28T22:20:29.921Z,54.60
2023-02-28T22:22:36.649Z,56.90
2023-02-28T22:24:43.678Z,55.35
2023-02-28T22:26:51.467Z,58.60
2023-02-28T22:29:00.507Z,56.45
2023-02-28T22:31:17.979Z,58.13
2023-02-28T22:33:25.251Z,60.45
2023-02-28T22:35:32.495Z,57.20
2023-02-28T22:37:39.714Z,61.75
2023-02-28T22:39:46.690Z,62.50
2023-02-28T22:41:53.725Z,58.38
2023-02-28T22:44:03.628Z,57.47
2023-02-28T22:46:12.429Z,58.53
2023-02-28T22:48:19.206Z,63.78
2023-02-28T22:50:26.232Z,61.63
2023-02-28T22:52:33.118Z,65.32
2023-02-28T22:54:40.239Z,63.15
2023-02-28T22:56:47.064Z,65.18
2023-02-28T22:58:54.857Z,63.00
2023-02-28T23:01:09.455Z,62.90
2023-02-28T23:03:16.601Z,66.43
2023-02-28T23:05:23.780Z,65.43
2023-02-28T23:07:31.073Z,64.72
2023-02-28T23:09:37.881Z,55.47
2023-02-28T23:11:46.550Z,56.50
2023-02-28T23:14:00.935Z,59.40
2023-02-28T23:16:13.003Z,53.78
2023-02-28T23:18:19.917Z,55.30
2023-02-28T23:20:26.790Z,57.13
2023-02-28T23:22:33.573Z,62.10
2023-02-28T23:24:40.898Z,62.45
2023-02-28T23:26:49.926Z,63.90
2023-02-28T23:28:57.123Z,64.28
2023-02-28T23:31:05.724Z,66.20
2023-02-28T23:33:14.541Z,65.88
2023-02-28T23:35:21.720Z,58.30
2023-02-28T23:37:29.012Z,61.42
2023-02-28T23:39:36.288Z,66.93
2023-02-28T23:41:43.624Z,64.10
2023-02-28T23:43:50.907Z,57.42
2023-02-28T23:46:00.674Z,64.60
2023-02-28T23:48:08.291Z,64.38
2023-02-28T23:50:16.957Z,70.22
2023-02-28T23:52:24.192Z,64.28
2023-02-28T23:54:30.913Z,68.57
2023-02-28T23:56:38.145Z,70.07
2023-02-28T23:58:45.328Z,71.65
